KCON/CON METAR and TAF weather

Enter ICAO airport designator
Station Type Date Time Source
KCON METAR 2022/11/30 10:51 UTC NOAA

KCON 301051Z AUTO 00000KT 10SM OVC031 M01/M02 A3019 RMK AO2 SLP227 T10061022


Station Type Date Time Source
KCON Decoded METAR 2022/11/30 10:51 UTC NOAA

Concord, Concord Municipal Airport, NH, United States (KCON) 43-11-43N 071-30-04W 103M
Nov 30, 2022 - 05:51 AM EST / 2022.11.30 1051 UTC
Wind: Calm:0
Visibility: 10 mile(s):0
Sky conditions: overcast
Temperature: 30.9 F (-0.6 C)
Dew Point: 28.0 F (-2.2 C)
Relative Humidity: 88%
Pressure (altimeter): 30.19 in. Hg (1022 hPa)
ob: KCON 301051Z AUTO 00000KT 10SM OVC031 M01/M02 A3019 RMK AO2 SLP227 T10061022
cycle: 11

Station Type Date Time Source
KCON TAF 2022/11/30 12:22 UTC NOAA

TAF KCON 301122Z 3012/0112 00000KT P6SM OVC030
FM301900 16011G21KT 5SM RA BR OVC009 WS020/17045KT
FM010200 27014G22KT 1 1/2SM -SHRA BR OVC035 WS020/17045KT
FM010600 2

Example: see airport list